Time;durP1;ratioP1;P1;durP2;ratioP2;P2;SDS_P1;SDS_P2;PMS_P1;PMS_P2;Temp;Humidity;BMP_temperature;BMP_pressure;BME280_temperature;BME280_humidity;BME280_pressure;Samples;Min_cycle;Max_cycle;Signal;HPM_P1;HPM_P2
2023/07/21 00:02:24;;;;;;;;;;;;;;;13.31;100.00;101278.75;5060274;28;20389;-46
2023/07/21 00:04:49;;;;;;;;;;;;;;;13.26;100.00;101280.34;5060662;28;19924;-46
2023/07/21 00:07:14;;;;;;;;;;;;;;;13.24;100.00;101271.72;5062883;28;20011;-46
2023/07/21 00:09:39;;;;;;;;;;;;;;;13.23;100.00;101275.13;5060840;28;19924;-48
2023/07/21 00:12:05;;;;;;;;;;;;;;;13.19;100.00;101270.69;5059109;28;19950;-47
2023/07/21 00:14:30;;;;;;;;;;;;;;;13.14;100.00;101264.53;5061345;28;19929;-46
2023/07/21 00:16:55;;;;;;;;;;;;;;;13.12;100.00;101273.97;5059949;28;19916;-47
2023/07/21 00:19:21;;;;;;;;;;;;;;;13.08;100.00;101269.56;5056945;28;19921;-50
2023/07/21 00:21:46;;;;;;;;;;;;;;;13.05;100.00;101272.09;5051282;27;19921;-47
2023/07/21 00:24:13;;;;;;;;;;;;;;;13.03;100.00;101266.84;5054356;28;21047;-48
2023/07/21 00:26:38;;;;;;;;;;;;;;;13.00;100.00;101264.22;5061216;28;19925;-47
2023/07/21 00:29:03;;;;;;;;;;;;;;;12.99;100.00;101264.19;5057563;28;19966;-47
2023/07/21 00:31:29;;;;;;;;;;;;;;;12.95;100.00;101265.81;5040751;28;19921;-50
2023/07/21 00:33:54;;;;;;;;;;;;;;;12.91;100.00;101260.53;5059704;28;19916;-49
2023/07/21 00:36:20;;;;;;;;;;;;;;;12.87;100.00;101269.91;5041839;28;20049;-49
2023/07/21 00:38:47;;;;;;;;;;;;;;;12.83;100.00;101262.91;5058786;28;19921;-52
2023/07/21 00:41:13;;;;;;;;;;;;;;;12.80;100.00;101266.31;5059634;28;20410;-53
2023/07/21 00:43:38;;;;;;;;;;;;;;;12.78;100.00;101255.06;5059029;28;19925;-51
2023/07/21 00:46:03;;;;;;;;;;;;;;;12.74;100.00;101255.84;5064619;28;19940;-49
2023/07/21 00:48:28;;;;;;;;;;;;;;;12.74;100.00;101266.16;5058205;28;19929;-48
2023/07/21 00:50:54;;;;;;;;;;;;;;;12.75;100.00;101259.28;5060074;28;20675;-49
2023/07/21 00:53:19;;;;;;;;;;;;;;;12.74;100.00;101261.00;5062297;28;19967;-50
2023/07/21 00:55:47;;;;;;;;;;;;;;;12.74;100.00;101250.66;5060649;28;21785;-48
2023/07/21 00:58:13;;;;;;;;;;;;;;;12.74;100.00;101242.03;5038246;28;20358;-49
2023/07/21 01:00:41;;;;;;;;;;;;;;;12.73;100.00;101243.72;5060815;28;19916;-47
2023/07/21 01:03:08;;;;;;;;;;;;;;;12.74;100.00;101248.09;5036607;28;20020;-49
2023/07/21 01:05:36;;;;;;;;;;;;;;;12.73;100.00;101245.44;5062692;28;19962;-49
2023/07/21 01:08:04;;;;;;;;;;;;;;;12.72;100.00;101242.00;5058598;27;19920;-51
2023/07/21 01:10:31;;;;;;;;;;;;;;;12.69;100.00;101230.75;5063529;28;19916;-48
2023/07/21 01:12:56;;;;;;;;;;;;;;;12.65;100.00;101234.06;5058936;27;19928;-49
2023/07/21 01:15:21;;;;;;;;;;;;;;;12.58;100.00;101225.31;5059592;28;19921;-47
2023/07/21 01:17:49;;;;;;;;;;;;;;;12.55;100.00;101232.94;5061656;27;20011;-49
2023/07/21 01:20:15;;;;;;;;;;;;;;;12.52;100.00;101233.75;5057963;28;19970;-50
2023/07/21 01:22:45;;;;;;;;;;;;;;;12.49;100.00;101231.09;5056212;28;19953;-48
2023/07/21 01:25:11;;;;;;;;;;;;;;;12.46;100.00;101231.00;5061725;28;19917;-48
2023/07/21 01:27:39;;;;;;;;;;;;;;;12.45;100.00;101229.28;5057546;27;20442;-47
2023/07/21 01:30:06;;;;;;;;;;;;;;;12.45;100.00;101229.28;5056319;28;20370;-45
2023/07/21 01:32:36;;;;;;;;;;;;;;;12.44;100.00;101226.66;5057958;28;19931;-46
2023/07/21 01:35:01;;;;;;;;;;;;;;;12.42;100.00;101225.72;5060479;28;19943;-49
2023/07/21 01:37:27;;;;;;;;;;;;;;;12.43;100.00;101227.47;5062256;28;19929;-47
2023/07/21 01:39:53;;;;;;;;;;;;;;;12.42;100.00;101221.44;5062456;27;19969;-47
2023/07/21 01:42:19;;;;;;;;;;;;;;;12.40;100.00;101212.81;5057297;28;19920;-47
2023/07/21 01:44:44;;;;;;;;;;;;;;;12.38;100.00;101217.06;5058008;28;20451;-47
2023/07/21 01:47:10;;;;;;;;;;;;;;;12.34;100.00;101216.09;5058165;28;19916;-46
2023/07/21 01:49:35;;;;;;;;;;;;;;;12.30;100.00;101214.25;5059670;28;19920;-47
2023/07/21 01:52:00;;;;;;;;;;;;;;;12.27;100.00;101218.47;5056412;28;20402;-47
2023/07/21 01:54:29;;;;;;;;;;;;;;;12.24;100.00;101214.09;5061258;28;19928;-47
2023/07/21 01:57:05;;;;;;;;;;;;;;;12.22;100.00;101205.44;5057916;28;20301;-48
2023/07/21 01:59:30;;;;;;;;;;;;;;;12.20;100.00;101207.13;5058343;28;19917;-46
2023/07/21 02:01:56;;;;;;;;;;;;;;;12.15;100.00;101200.97;5061915;28;19932;-48
2023/07/21 02:04:21;;;;;;;;;;;;;;;12.13;100.00;101199.16;5057042;28;20003;-47
2023/07/21 02:06:47;;;;;;;;;;;;;;;12.10;100.00;101207.69;5060607;28;20341;-47
2023/07/21 02:09:12;;;;;;;;;;;;;;;12.08;100.00;101201.63;5054834;28;19921;-49
2023/07/21 02:11:38;;;;;;;;;;;;;;;12.08;100.00;101199.94;5063672;28;19931;-52
2023/07/21 02:14:03;;;;;;;;;;;;;;;12.07;100.00;101199.88;5064660;28;19921;-51
2023/07/21 02:16:28;;;;;;;;;;;;;;;12.04;100.00;101204.97;5045401;28;19927;-48
2023/07/21 02:18:54;;;;;;;;;;;;;;;12.00;100.00;101193.69;5057038;28;19932;-49
2023/07/21 02:21:20;;;;;;;;;;;;;;;11.98;100.00;101199.63;5063242;28;20507;-48
2023/07/21 02:23:45;;;;;;;;;;;;;;;11.98;100.00;101200.50;5064245;27;20426;-50
2023/07/21 02:26:10;;;;;;;;;;;;;;;11.94;100.00;101202.94;5061071;28;19989;-50
2023/07/21 02:28:35;;;;;;;;;;;;;;;11.90;100.00;101201.13;5062841;27;19925;-48
2023/07/21 02:31:03;;;;;;;;;;;;;;;11.89;100.00;101199.34;5053148;28;20338;-50
2023/07/21 02:33:31;;;;;;;;;;;;;;;11.86;100.00;101194.13;5052814;28;20289;-48
2023/07/21 02:35:57;;;;;;;;;;;;;;;11.84;100.00;101193.22;5061578;28;19916;-47
2023/07/21 02:38:23;;;;;;;;;;;;;;;11.81;100.00;101187.13;5061723;28;19923;-50
2023/07/21 02:40:48;;;;;;;;;;;;;;;11.80;100.00;101192.22;5063977;28;20274;-48
2023/07/21 02:43:13;;;;;;;;;;;;;;;11.74;100.00;101187.78;5055078;28;20381;-50
2023/07/21 02:45:39;;;;;;;;;;;;;;;11.67;100.00;101178.13;5062387;28;19931;-48
2023/07/21 02:48:08;;;;;;;;;;;;;;;11.64;100.00;101183.19;5058949;28;19924;-52
2023/07/21 02:50:33;;;;;;;;;;;;;;;11.64;100.00;101182.31;5059489;28;19941;-52
2023/07/21 02:52:58;;;;;;;;;;;;;;;11.66;100.00;101180.66;5065017;28;19920;-48
2023/07/21 02:55:24;;;;;;;;;;;;;;;11.66;100.00;101180.66;5060615;28;20374;-46
2023/07/21 02:57:49;;;;;;;;;;;;;;;11.64;100.00;101182.31;5061604;28;20498;-48
2023/07/21 03:00:14;;;;;;;;;;;;;;;11.64;100.00;101183.19;5058676;28;20034;-47
2023/07/21 03:02:41;;;;;;;;;;;;;;;11.68;100.00;101185.03;5062999;28;20427;-47
2023/07/21 03:05:06;;;;;;;;;;;;;;;11.69;100.00;101181.59;5055980;27;19920;-47
2023/07/21 03:07:32;;;;;;;;;;;;;;;11.68;100.00;101182.44;5060567;28;19928;-46
2023/07/21 03:09:57;;;;;;;;;;;;;;;11.65;100.00;101176.31;5065603;28;19966;-46
2023/07/21 03:12:22;;;;;;;;;;;;;;;11.59;100.00;101179.63;5041061;28;19964;-48
2023/07/21 03:14:48;;;;;;;;;;;;;;;11.56;100.00;101182.09;5063834;28;19932;-47
2023/07/21 03:17:14;;;;;;;;;;;;;;;11.53;100.00;101182.88;5063863;28;19924;-48
2023/07/21 03:19:40;;;;;;;;;;;;;;;11.52;100.00;101190.53;5059265;28;20298;-48
2023/07/21 03:22:05;;;;;;;;;;;;;;;11.46;100.00;101178.38;5058962;28;19947;-48
2023/07/21 03:24:30;;;;;;;;;;;;;;;11.43;100.00;101183.44;5063617;28;19928;-47
2023/07/21 03:26:56;;;;;;;;;;;;;;;11.43;100.00;101182.56;5060187;28;20328;-47
2023/07/21 03:29:21;;;;;;;;;;;;;;;11.39;100.00;101181.59;5062777;28;19972;-49
2023/07/21 03:31:46;;;;;;;;;;;;;;;11.37;100.00;101174.66;5064170;28;19945;-47
2023/07/21 03:34:11;;;;;;;;;;;;;;;11.34;100.00;101185.72;5063369;28;19976;-50
2023/07/21 03:36:37;;;;;;;;;;;;;;;11.33;100.00;101176.25;5046268;28;20015;-51
2023/07/21 03:39:02;;;;;;;;;;;;;;;11.31;100.00;101187.34;5061769;28;19928;-51
2023/07/21 03:41:27;;;;;;;;;;;;;;;11.28;100.00;101182.97;5063678;28;19916;-50
2023/07/21 03:43:52;;;;;;;;;;;;;;;11.26;100.00;101182.94;5046957;28;19924;-52
2023/07/21 03:46:18;;;;;;;;;;;;;;;11.22;100.00;101183.69;5061300;28;19921;-51
2023/07/21 03:48:44;;;;;;;;;;;;;;;11.18;100.00;101183.53;5058059;28;19928;-50
2023/07/21 03:51:10;;;;;;;;;;;;;;;11.14;100.00;101179.97;5060080;28;20015;-50
2023/07/21 03:53:35;;;;;;;;;;;;;;;11.15;100.00;101180.84;5059403;28;20007;-52
2023/07/21 03:56:00;;;;;;;;;;;;;;;11.17;100.00;101176.66;5061374;28;20011;-51
2023/07/21 03:58:26;;;;;;;;;;;;;;;11.16;100.00;101169.72;5061771;28;19952;-51
2023/07/21 04:00:51;;;;;;;;;;;;;;;11.15;100.00;101171.44;5059808;28;20400;-50
2023/07/21 04:03:19;;;;;;;;;;;;;;;11.18;100.00;101176.69;5062615;27;19924;-51
2023/07/21 04:05:45;;;;;;;;;;;;;;;11.19;100.00;101169.84;5058540;28;19927;-50
2023/07/21 04:08:11;;;;;;;;;;;;;;;11.19;100.00;101167.25;5059104;28;19937;-52
2023/07/21 04:10:43;;;;;;;;;;;;;;;11.18;100.00;101161.25;5061227;28;20274;-51
2023/07/21 04:13:08;;;;;;;;;;;;;;;11.17;100.00;101166.34;5058908;28;20319;-51
2023/07/21 04:15:33;;;;;;;;;;;;;;;11.18;100.00;101161.25;5063236;28;20015;-55
2023/07/21 04:17:58;;;;;;;;;;;;;;;11.21;100.00;101160.44;5064605;28;19982;-50
2023/07/21 04:20:24;;;;;;;;;;;;;;;11.25;100.00;101162.28;5058575;28;20336;-50
2023/07/21 04:22:49;;;;;;;;;;;;;;;11.29;100.00;101156.41;5061392;28;20011;-52
2023/07/21 04:25:17;;;;;;;;;;;;;;;11.34;100.00;101159.09;5060978;28;19923;-52
2023/07/21 04:27:42;;;;;;;;;;;;;;;11.37;100.00;101157.50;5059517;28;19920;-51
2023/07/21 04:30:08;;;;;;;;;;;;;;;11.39;100.00;101150.69;5034627;28;19929;-52
2023/07/21 04:32:33;;;;;;;;;;;;;;;11.43;100.00;101144.81;5058491;28;19974;-50
2023/07/21 04:34:59;;;;;;;;;;;;;;;11.46;100.00;101141.44;5059236;28;19924;-51
2023/07/21 04:37:25;;;;;;;;;;;;;;;11.47;100.00;101148.38;5055478;27;19945;-49
2023/07/21 04:39:51;;;;;;;;;;;;;;;11.57;100.00;101150.34;5054347;28;20156;-51
2023/07/21 04:42:16;;;;;;;;;;;;;;;11.90;100.00;101144.44;5058136;28;19924;-48
2023/07/21 04:44:43;;;;;;;;;;;;;;;12.45;100.00;101145.88;5057986;28;19920;-47
2023/07/21 04:47:08;;;;;;;;;;;;;;;12.96;100.00;101135.91;5056412;28;19920;-48
2023/07/21 04:49:33;;;;;;;;;;;;;;;13.12;100.00;101139.72;5057654;28;19916;-48
2023/07/21 04:52:00;;;;;;;;;;;;;;;13.10;100.00;101146.53;5053373;28;19927;-47
2023/07/21 04:54:25;;;;;;;;;;;;;;;13.13;100.00;101154.34;5058089;27;19928;-50
2023/07/21 04:56:52;;;;;;;;;;;;;;;13.26;100.00;101147.78;5058039;27;20486;-50
2023/07/21 04:59:18;;;;;;;;;;;;;;;13.27;100.00;101150.38;5041492;28;19920;-48
2023/07/21 05:01:44;;;;;;;;;;;;;;;13.32;100.00;101146.19;5065158;28;20048;-47
2023/07/21 05:04:09;;;;;;;;;;;;;;;13.29;100.00;101151.31;5062363;28;20003;-47
2023/07/21 05:06:34;;;;;;;;;;;;;;;13.23;100.00;101158.94;5056523;28;19921;-47
2023/07/21 05:08:59;;;;;;;;;;;;;;;13.23;100.00;101160.66;5057088;28;19928;-47
2023/07/21 05:11:25;;;;;;;;;;;;;;;13.24;100.00;101159.81;5064089;28;19921;-50
2023/07/21 05:13:52;;;;;;;;;;;;;;;13.38;100.00;101166.13;5059237;27;19932;-50
2023/07/21 05:16:17;;;;;;;;;;;;;;;13.60;100.00;101162.28;5060796;28;19920;-48
2023/07/21 05:18:43;;;;;;;;;;;;;;;13.84;100.00;101154.16;5056112;28;19925;-50
2023/07/21 05:21:08;;;;;;;;;;;;;;;14.03;100.00;101157.97;5055356;28;19920;-50
2023/07/21 05:23:33;;;;;;;;;;;;;;;14.08;100.00;101156.34;5055898;28;19979;-49
2023/07/21 05:26:00;;;;;;;;;;;;;;;14.18;100.00;101164.25;5054517;28;20397;-50
2023/07/21 05:28:25;;;;;;;;;;;;;;;14.52;100.00;101164.03;5057182;28;20003;-49
2023/07/21 05:30:50;;;;;;;;;;;;;;;15.12;100.00;101163.25;5064618;28;20342;-47
2023/07/21 05:33:16;;;;;;;;;;;;;;;15.73;100.00;101153.69;5058748;27;20015;-48
2023/07/21 05:35:41;;;;;;;;;;;;;;;16.22;100.00;101162.00;5065417;28;19963;-48
2023/07/21 05:38:09;;;;;;;;;;;;;;;16.44;99.70;101163.94;5038447;28;19917;-47
2023/07/21 05:40:34;;;;;;;;;;;;;;;16.36;99.14;101162.97;5055224;28;19920;-48
2023/07/21 05:43:00;;;;;;;;;;;;;;;16.29;99.51;101159.47;5057794;27;19961;-49
2023/07/21 05:45:25;;;;;;;;;;;;;;;16.36;99.13;101150.88;5056028;27;19924;-45
2023/07/21 05:47:50;;;;;;;;;;;;;;;16.40;98.97;101163.88;5065156;28;19928;-50
2023/07/21 05:50:16;;;;;;;;;;;;;;;16.44;98.71;101156.16;5065104;28;20298;-47
2023/07/21 05:52:41;;;;;;;;;;;;;;;16.52;99.16;101157.06;5044195;28;19920;-46
2023/07/21 05:55:06;;;;;;;;;;;;;;;16.70;98.39;101155.50;5062759;28;20011;-46
2023/07/21 05:57:32;;;;;;;;;;;;;;;16.83;97.78;101165.13;5063557;28;20026;-46
2023/07/21 05:59:58;;;;;;;;;;;;;;;16.92;96.90;101159.13;5064697;28;20330;-47
2023/07/21 06:02:23;;;;;;;;;;;;;;;16.89;96.59;101160.00;5064661;28;19927;-47
2023/07/21 06:04:49;;;;;;;;;;;;;;;16.89;97.71;101160.84;5067795;28;19955;-46
2023/07/21 06:07:14;;;;;;;;;;;;;;;16.96;98.35;101156.56;5063225;27;19917;-46
2023/07/21 06:09:40;;;;;;;;;;;;;;;17.21;97.77;101159.31;5065373;28;19927;-46
2023/07/21 06:12:05;;;;;;;;;;;;;;;17.41;97.69;101158.56;5062330;27;20007;-46
2023/07/21 06:14:31;;;;;;;;;;;;;;;17.68;96.54;101159.53;5067091;28;19934;-46
2023/07/21 06:16:56;;;;;;;;;;;;;;;17.69;94.96;101159.53;5059031;27;19921;-46
2023/07/21 06:19:21;;;;;;;;;;;;;;;17.58;94.40;101155.16;5058220;27;20378;-49
2023/07/21 06:21:47;;;;;;;;;;;;;;;17.40;95.21;101154.22;5060421;28;19916;-46
2023/07/21 06:24:12;;;;;;;;;;;;;;;17.31;94.84;101148.97;5065928;28;19924;-51
2023/07/21 06:26:38;;;;;;;;;;;;;;;17.18;95.78;101151.50;5067030;27;20292;-50
2023/07/21 06:29:03;;;;;;;;;;;;;;;17.12;96.38;101160.13;5066198;27;20019;-50
2023/07/21 06:31:28;;;;;;;;;;;;;;;17.09;95.97;101160.09;5062648;28;19943;-49
2023/07/21 06:33:53;;;;;;;;;;;;;;;16.99;96.16;101163.53;5065096;28;19956;-49
2023/07/21 06:36:19;;;;;;;;;;;;;;;16.94;97.34;101152.22;5061438;28;19913;-48
2023/07/21 06:38:44;;;;;;;;;;;;;;;16.92;97.38;101154.78;5064004;28;19924;-50
2023/07/21 06:41:10;;;;;;;;;;;;;;;16.91;97.17;101153.06;5045747;28;19924;-47
2023/07/21 06:43:35;;;;;;;;;;;;;;;16.87;97.94;101152.19;5047882;28;19920;-50
2023/07/21 06:46:02;;;;;;;;;;;;;;;16.88;98.92;101153.06;5058750;28;19917;-45
2023/07/21 06:48:27;;;;;;;;;;;;;;;16.88;98.01;101153.94;5059068;28;20023;-50
2023/07/21 06:50:53;;;;;;;;;;;;;;;16.91;98.99;101154.78;5059402;28;20316;-46
2023/07/21 06:53:18;;;;;;;;;;;;;;;16.97;98.59;101155.69;5064932;28;19920;-49
2023/07/21 06:55:44;;;;;;;;;;;;;;;17.11;97.13;101155.81;5035294;28;19977;-47
2023/07/21 06:58:09;;;;;;;;;;;;;;;17.25;97.52;101158.47;5059651;28;19916;-50
2023/07/21 07:00:35;;;;;;;;;;;;;;;17.46;97.04;101155.97;5061204;28;19920;-49
2023/07/21 07:03:01;;;;;;;;;;;;;;;17.53;96.15;101149.94;5060760;28;19921;-50
2023/07/21 07:05:26;;;;;;;;;;;;;;;17.60;95.93;101150.84;5062657;28;20389;-49
2023/07/21 07:07:52;;;;;;;;;;;;;;;17.66;94.05;101158.69;5057786;28;19956;-49
2023/07/21 07:10:17;;;;;;;;;;;;;;;17.64;93.78;101153.44;5064738;28;19995;-49
2023/07/21 07:12:43;;;;;;;;;;;;;;;17.67;94.53;101155.19;5055684;28;19976;-49
2023/07/21 07:15:09;;;;;;;;;;;;;;;17.72;93.75;101153.53;5054671;28;20374;-48
2023/07/21 07:17:34;;;;;;;;;;;;;;;17.68;92.19;101152.59;5057171;27;19963;-47
2023/07/21 07:19:59;;;;;;;;;;;;;;;17.62;92.48;101149.13;5061566;28;20451;-49
2023/07/21 07:22:25;;;;;;;;;;;;;;;17.60;91.87;101148.25;5059553;28;19960;-46
2023/07/21 07:24:51;;;;;;;;;;;;;;;17.54;92.68;101150.81;5060605;28;19928;-46
2023/07/21 07:27:16;;;;;;;;;;;;;;;17.63;92.38;101146.50;5062066;27;19917;-50
2023/07/21 07:29:41;;;;;;;;;;;;;;;17.76;92.58;101139.66;5060095;28;20310;-47
2023/07/21 07:32:07;;;;;;;;;;;;;;;17.91;92.28;101136.22;5062501;27;19920;-49
2023/07/21 07:34:32;;;;;;;;;;;;;;;18.06;91.43;101144.06;5045214;28;19968;-48
2023/07/21 07:36:58;;;;;;;;;;;;;;;18.17;92.01;101152.75;5064451;28;19924;-47
2023/07/21 07:39:24;;;;;;;;;;;;;;;18.38;89.27;101153.63;5063353;28;20297;-46
2023/07/21 07:41:50;;;;;;;;;;;;;;;18.47;89.21;101148.44;5067490;27;19920;-46
2023/07/21 07:44:15;;;;;;;;;;;;;;;18.58;89.22;101151.06;5066309;28;19947;-46
2023/07/21 07:46:41;;;;;;;;;;;;;;;18.66;87.76;101152.78;5064528;28;20374;-47
2023/07/21 07:49:06;;;;;;;;;;;;;;;18.69;87.04;101157.16;5064199;28;19916;-48
2023/07/21 07:51:31;;;;;;;;;;;;;;;18.70;87.82;101151.94;5054305;27;19956;-55
2023/07/21 07:53:57;;;;;;;;;;;;;;;18.84;88.11;101153.66;5052258;27;19942;-56
2023/07/21 07:56:22;;;;;;;;;;;;;;;18.97;86.47;101152.78;5058296;28;20496;-56
2023/07/21 07:58:48;;;;;;;;;;;;;;;19.03;86.04;101152.75;5059065;28;19921;-55
2023/07/21 08:01:13;;;;;;;;;;;;;;;19.16;86.56;101151.00;5062465;28;19924;-55
2023/07/21 08:03:43;;;;;;;;;;;;;;;19.26;85.92;101157.91;5057305;28;19924;-55
2023/07/21 08:06:08;;;;;;;;;;;;;;;19.38;85.93;101149.19;5063747;28;19957;-55
2023/07/21 08:08:34;;;;;;;;;;;;;;;19.40;85.03;101150.91;5045838;28;20019;-56
2023/07/21 08:11:01;;;;;;;;;;;;;;;19.35;85.57;101154.41;5063877;28;19920;-55
2023/07/21 08:13:26;;;;;;;;;;;;;;;19.30;84.81;101149.22;5066077;28;20000;-60
2023/07/21 08:15:51;;;;;;;;;;;;;;;19.25;84.72;101146.63;5061568;28;20482;-56
2023/07/21 08:18:17;;;;;;;;;;;;;;;19.19;85.19;101151.00;5043766;28;19924;-56
2023/07/21 08:20:43;;;;;;;;;;;;;;;19.11;84.12;101145.81;5056980;28;20017;-55
2023/07/21 08:23:08;;;;;;;;;;;;;;;19.11;84.69;101145.81;5059564;27;19925;-56
2023/07/21 08:25:33;;;;;;;;;;;;;;;19.18;83.55;101149.25;5064113;28;19931;-55
2023/07/21 08:28:00;;;;;;;;;;;;;;;19.20;81.34;101148.38;5052509;28;19943;-55
2023/07/21 08:30:25;;;;;;;;;;;;;;;19.27;83.01;101149.22;5063730;27;19928;-55
2023/07/21 08:32:51;;;;;;;;;;;;;;;19.27;81.66;101144.88;5045081;28;19946;-55
2023/07/21 08:35:16;;;;;;;;;;;;;;;19.32;82.70;101152.69;5057961;27;19962;-54
2023/07/21 08:37:42;;;;;;;;;;;;;;;19.31;83.67;101147.47;5040792;28;19929;-55
2023/07/21 08:40:08;;;;;;;;;;;;;;;19.35;83.68;101147.44;5064543;27;19968;-56
2023/07/21 08:42:33;;;;;;;;;;;;;;;19.40;83.31;101152.66;5062660;28;20296;-54
2023/07/21 08:45:00;;;;;;;;;;;;;;;19.45;82.30;101159.59;5057280;28;19917;-55
2023/07/21 08:47:25;;;;;;;;;;;;;;;19.48;81.76;101156.13;5064970;28;19945;-55
2023/07/21 08:49:50;;;;;;;;;;;;;;;19.50;82.44;101150.00;5061873;27;19921;-56
2023/07/21 08:52:16;;;;;;;;;;;;;;;19.61;80.46;101156.97;5061829;28;20318;-57
2023/07/21 08:54:43;;;;;;;;;;;;;;;19.67;79.09;101159.53;5058991;28;19929;-57
2023/07/21 08:57:10;;;;;;;;;;;;;;;19.67;80.21;101154.31;5058186;28;19958;-58
2023/07/21 08:59:35;;;;;;;;;;;;;;;19.72;80.13;101160.41;5039591;28;20347;-57
2023/07/21 09:02:00;;;;;;;;;;;;;;;19.83;78.27;101155.97;5058873;28;20019;-58
2023/07/21 09:04:25;;;;;;;;;;;;;;;19.90;78.27;101159.41;5060974;28;20496;-57
2023/07/21 09:06:54;;;;;;;;;;;;;;;19.99;77.85;101151.53;5042317;28;19980;-58
2023/07/21 09:09:20;;;;;;;;;;;;;;;20.08;76.71;101146.25;5061339;28;20608;-57
2023/07/21 09:11:46;;;;;;;;;;;;;;;20.06;77.66;101148.00;5062225;28;19916;-56
2023/07/21 09:14:11;;;;;;;;;;;;;;;20.17;78.84;101143.59;5057325;28;20279;-57
2023/07/21 09:16:38;;;;;;;;;;;;;;;20.34;78.75;101153.91;5059933;28;19943;-58
2023/07/21 09:19:05;;;;;;;;;;;;;;;20.58;77.04;101150.28;5061409;28;20266;-57
2023/07/21 09:21:30;;;;;;;;;;;;;;;20.78;72.57;101150.94;5062049;28;19921;-57
2023/07/21 09:24:02;;;;;;;;;;;;;;;20.96;72.91;101144.66;5065215;28;19927;-58
2023/07/21 09:26:28;;;;;;;;;;;;;;;21.18;74.43;101144.47;5059770;28;19951;-57
2023/07/21 09:28:53;;;;;;;;;;;;;;;21.32;68.84;101143.44;5064090;27;19917;-56
2023/07/21 09:31:26;;;;;;;;;;;;;;;21.30;70.52;101142.59;5063903;28;19920;-57
2023/07/21 09:33:51;;;;;;;;;;;;;;;21.51;65.79;101149.31;5053998;28;19913;-59
2023/07/21 09:36:16;;;;;;;;;;;;;;;21.71;64.68;101141.19;5056358;28;19938;-58
2023/07/21 09:38:42;;;;;;;;;;;;;;;21.76;68.99;101128.91;5037643;28;19921;-58
2023/07/21 09:41:09;;;;;;;;;;;;;;;21.97;63.80;101137.38;5056266;28;19921;-58
2023/07/21 09:43:35;;;;;;;;;;;;;;;22.06;64.89;101132.84;5057383;28;19917;-58
2023/07/21 09:46:05;;;;;;;;;;;;;;;21.88;63.79;101127.88;5057325;28;19921;-58
2023/07/21 09:48:30;;;;;;;;;;;;;;;21.56;66.31;101130.94;5057129;28;19917;-57
2023/07/21 09:51:00;;;;;;;;;;;;;;;21.17;66.29;101120.03;5054497;28;20304;-57
2023/07/21 09:53:39;;;;;;;;;;;;;;;20.83;67.22;101122.16;5058318;28;20045;-56
2023/07/21 09:56:04;;;;;;;;;;;;;;;20.65;68.27;101119.72;5065528;28;19973;-58
2023/07/21 09:58:31;;;;;;;;;;;;;;;20.48;68.41;101123.34;5062857;28;19921;-57
2023/07/21 10:01:02;;;;;;;;;;;;;;;20.27;69.11;101126.97;5062981;28;19921;-57
2023/07/21 10:03:28;;;;;;;;;;;;;;;20.09;69.86;101127.13;5059332;28;19965;-58
2023/07/21 10:05:54;;;;;;;;;;;;;;;20.01;70.67;101127.16;5055107;28;19928;-58
2023/07/21 10:08:21;;;;;;;;;;;;;;;19.98;69.90;101121.09;5058008;28;19929;-57
2023/07/21 10:10:46;;;;;;;;;;;;;;;20.02;70.46;101121.06;5071350;27;19916;-57
2023/07/21 10:13:12;;;;;;;;;;;;;;;20.21;70.55;101121.81;5061954;28;20257;-57
2023/07/21 10:15:37;;;;;;;;;;;;;;;20.40;66.92;101122.53;5063211;28;20314;-58
2023/07/21 10:18:06;;;;;;;;;;;;;;;20.45;64.71;101125.09;5063814;28;20003;-58
2023/07/21 10:20:45;;;;;;;;;;;;;;;20.55;67.59;101121.53;5037360;28;20026;-57
2023/07/21 10:23:13;;;;;;;;;;;;;;;20.78;66.61;101110.88;5060161;28;20001;-58
2023/07/21 10:25:45;;;;;;;;;;;;;;;21.13;64.74;101111.38;5064850;28;20483;-57
2023/07/21 10:28:11;;;;;;;;;;;;;;;21.42;66.18;101115.44;5062593;28;19917;-57
2023/07/21 10:30:36;;;;;;;;;;;;;;;21.64;66.10;101113.38;5066325;28;19927;-57
2023/07/21 10:33:12;;;;;;;;;;;;;;;21.91;62.01;101112.13;5057438;27;19983;-58
2023/07/21 10:35:38;;;;;;;;;;;;;;;21.97;64.66;101103.34;5065207;28;19926;-58
2023/07/21 10:38:13;;;;;;;;;;;;;;;21.99;60.09;101105.03;5065594;28;19921;-57
2023/07/21 10:40:39;;;;;;;;;;;;;;;22.20;62.50;101103.84;5066353;28;20019;-57
2023/07/21 10:43:04;;;;;;;;;;;;;;;22.45;58.47;101102.56;5062417;28;20400;-57
2023/07/21 10:45:29;;;;;;;;;;;;;;;22.66;57.89;101096.06;5058874;28;20394;-58
2023/07/21 10:47:54;;;;;;;;;;;;;;;22.97;57.12;101098.16;5059672;27;19917;-58
2023/07/21 10:50:21;;;;;;;;;;;;;;;23.21;60.27;101095.03;5063135;28;19917;-58
2023/07/21 10:52:52;;;;;;;;;;;;;;;23.12;53.18;101105.72;5057362;28;19947;-58
2023/07/21 10:55:18;;;;;;;;;;;;;;;22.94;55.46;101104.34;5059854;28;19916;-57
2023/07/21 10:57:44;;;;;;;;;;;;;;;22.69;58.00;101106.53;5068072;28;19917;-58
2023/07/21 11:00:09;;;;;;;;;;;;;;;22.38;57.12;101102.69;5065962;27;20339;-57
2023/07/21 11:02:38;;;;;;;;;;;;;;;22.04;55.66;101099.72;5061117;28;19925;-58
2023/07/21 11:05:04;;;;;;;;;;;;;;;21.70;62.66;101105.44;5063798;28;19931;-57
2023/07/21 11:07:29;;;;;;;;;;;;;;;21.31;66.68;101114.69;5065621;28;19920;-57
2023/07/21 11:09:58;;;;;;;;;;;;;;;20.64;71.16;101121.47;5067849;28;20279;-56
2023/07/21 11:12:24;;;;;;;;;;;;;;;19.99;74.77;101138.47;5061768;28;20397;-58
2023/07/21 11:14:49;;;;;;;;;;;;;;;19.40;76.26;101147.44;5065363;28;19925;-57
2023/07/21 11:17:15;;;;;;;;;;;;;;;18.88;82.21;101186.66;5065275;27;19968;-56
2023/07/21 11:19:40;;;;;;;;;;;;;;;18.35;82.79;101182.28;5068531;28;19923;-56
2023/07/21 11:22:08;;;;;;;;;;;;;;;17.77;84.12;101209.00;5041639;28;19928;-57
2023/07/21 11:24:34;;;;;;;;;;;;;;;17.26;85.15;101204.38;5059612;27;19921;-58
2023/07/21 11:27:02;;;;;;;;;;;;;;;16.78;88.76;101205.78;5065038;28;19932;-58
2023/07/21 11:29:30;;;;;;;;;;;;;;;16.49;97.69;101197.69;5060137;28;20338;-59
2023/07/21 11:31:55;;;;;;;;;;;;;;;16.33;99.68;101191.50;5061019;28;19912;-58
2023/07/21 11:34:24;;;;;;;;;;;;;;;16.07;98.21;101181.72;5061584;28;20018;-58
2023/07/21 11:36:54;;;;;;;;;;;;;;;15.92;100.00;101186.75;5062059;28;20397;-57
2023/07/21 11:39:20;;;;;;;;;;;;;;;15.85;98.07;101179.75;5059914;28;19924;-58
2023/07/21 11:41:47;;;;;;;;;;;;;;;15.79;100.00;101180.56;5052721;28;19927;-59
2023/07/21 11:44:22;;;;;;;;;;;;;;;15.84;100.00;101172.84;5058681;28;19931;-57
2023/07/21 11:47:07;;;;;;;;;;;;;;;15.84;99.84;101167.66;5059005;28;19968;-58
2023/07/21 11:49:36;;;;;;;;;;;;;;;16.01;100.00;101165.22;5058292;28;20003;-57
2023/07/21 11:52:02;;;;;;;;;;;;;;;16.30;100.00;101145.63;5055342;28;19913;-57
2023/07/21 11:54:29;;;;;;;;;;;;;;;16.53;100.00;101140.63;5061768;27;20007;-57
2023/07/21 11:56:55;;;;;;;;;;;;;;;16.75;98.33;101153.84;5058035;28;20003;-58
2023/07/21 11:59:21;;;;;;;;;;;;;;;16.89;100.00;101152.19;5058774;28;19912;-59
2023/07/21 12:01:47;;;;;;;;;;;;;;;17.03;96.11;101144.47;5064439;28;19995;-58
2023/07/21 12:04:12;;;;;;;;;;;;;;;17.15;100.00;101147.16;5058338;28;19970;-58
2023/07/21 12:06:38;;;;;;;;;;;;;;;17.26;98.53;101140.28;5064884;28;19916;-58
2023/07/21 12:09:06;;;;;;;;;;;;;;;17.34;100.00;101133.38;5059642;28;20225;-58
2023/07/21 12:11:35;;;;;;;;;;;;;;;17.41;98.46;101142.97;5059343;28;20404;-59
2023/07/21 12:14:01;;;;;;;;;;;;;;;17.38;99.84;101149.88;5061631;28;19931;-59
2023/07/21 12:16:26;;;;;;;;;;;;;;;17.34;99.33;101150.72;5095015;27;19921;-59
2023/07/21 12:18:51;;;;;;;;;;;;;;;17.25;100.00;101159.34;5061247;28;19980;-58
2023/07/21 12:21:17;;;;;;;;;;;;;;;17.16;100.00;101177.47;5064108;28;19981;-56
2023/07/21 12:23:45;;;;;;;;;;;;;;;17.06;100.00;101194.75;5054741;28;20228;-56
2023/07/21 12:26:10;;;;;;;;;;;;;;;16.89;100.00;101196.34;5053122;28;19931;-55